sensor_id;sensor_type;location;lat;lon;timestamp;pressure;altitude;pressure_sealevel;temperature;humidity
69848;BME280;57143;55.940;37.496;2023-03-18T00:01:03;100248.63;;;-2.88;100.00
69848;BME280;57143;55.940;37.496;2023-03-18T00:03:33;100200.38;;;-3.15;100.00
69848;BME280;57143;55.940;37.496;2023-03-18T00:06:07;100227.25;;;-2.98;100.00
69848;BME280;57143;55.940;37.496;2023-03-18T00:08:36;100231.72;;;-2.98;100.00
69848;BME280;57143;55.940;37.496;2023-03-18T00:11:04;100248.94;;;-2.93;100.00
69848;BME280;57143;55.940;37.496;2023-03-18T00:13:31;100235.56;;;-3.02;100.00
69848;BME280;57143;55.940;37.496;2023-03-18T00:15:59;100238.72;;;-2.97;100.00
69848;BME280;57143;55.940;37.496;2023-03-18T00:18:27;100231.22;;;-3.03;100.00
69848;BME280;57143;55.940;37.496;2023-03-18T00:20:54;100233.16;;;-3.05;100.00
69848;BME280;57143;55.940;37.496;2023-03-18T00:23:24;100225.09;;;-3.04;100.00
69848;BME280;57143;55.940;37.496;2023-03-18T00:25:54;100224.25;;;-3.04;100.00
69848;BME280;57143;55.940;37.496;2023-03-18T00:28:22;100219.06;;;-3.06;100.00
69848;BME280;57143;55.940;37.496;2023-03-18T00:30:50;100213.03;;;-3.08;100.00
69848;BME280;57143;55.940;37.496;2023-03-18T00:33:17;100202.78;;;-3.12;100.00
69848;BME280;57143;55.940;37.496;2023-03-18T00:35:44;100200.16;;;-3.12;100.00
69848;BME280;57143;55.940;37.496;2023-03-18T00:38:13;100197.59;;;-3.14;100.00
69848;BME280;57143;55.940;37.496;2023-03-18T00:40:47;100174.34;;;-3.21;100.00
69848;BME280;57143;55.940;37.496;2023-03-18T00:43:27;100174.09;;;-3.18;100.00
69848;BME280;57143;55.940;37.496;2023-03-18T00:45:58;100174.09;;;-3.18;100.00
69848;BME280;57143;55.940;37.496;2023-03-18T00:48:26;100148.56;;;-3.30;100.00
69848;BME280;57143;55.940;37.496;2023-03-18T00:50:54;100140.03;;;-3.23;100.00
69848;BME280;57143;55.940;37.496;2023-03-18T00:53:22;100090.59;;;-3.24;100.00
69848;BME280;57143;55.940;37.496;2023-03-18T00:55:52;100062.44;;;-3.25;100.00
69848;BME280;57143;55.940;37.496;2023-03-18T00:58:20;100035.22;;;-3.27;100.00
69848;BME280;57143;55.940;37.496;2023-03-18T01:00:47;100000.28;;;-3.32;100.00
69848;BME280;57143;55.940;37.496;2023-03-18T01:03:14;99979.94;;;-3.31;100.00
69848;BME280;57143;55.940;37.496;2023-03-18T01:05:42;99926.97;;;-3.42;100.00
69848;BME280;57143;55.940;37.496;2023-03-18T01:08:09;99912.50;;;-3.38;100.00
69848;BME280;57143;55.940;37.496;2023-03-18T01:10:37;99873.50;;;-3.47;100.00
69848;BME280;57143;55.940;37.496;2023-03-18T01:13:06;99878.19;;;-3.40;100.00
69848;BME280;57143;55.940;37.496;2023-03-18T01:15:33;99874.81;;;-3.42;100.00
69848;BME280;57143;55.940;37.496;2023-03-18T01:18:00;99880.34;;;-3.45;100.00
69848;BME280;57143;55.940;37.496;2023-03-18T01:20:28;99873.38;;;-3.46;100.00
69848;BME280;57143;55.940;37.496;2023-03-18T01:22:55;99863.88;;;-3.48;100.00
69848;BME280;57143;55.940;37.496;2023-03-18T01:25:23;99869.28;;;-3.50;100.00
69848;BME280;57143;55.940;37.496;2023-03-18T01:27:50;99867.75;;;-3.53;100.00
69848;BME280;57143;55.940;37.496;2023-03-18T01:30:20;99849.22;;;-3.64;100.00
69848;BME280;57143;55.940;37.496;2023-03-18T01:32:48;99862.34;;;-3.62;100.00
69848;BME280;57143;55.940;37.496;2023-03-18T01:35:16;99864.41;;;-3.66;100.00
69848;BME280;57143;55.940;37.496;2023-03-18T01:37:44;99867.91;;;-3.65;100.00
69848;BME280;57143;55.940;37.496;2023-03-18T01:40:12;99862.47;;;-3.64;100.00
69848;BME280;57143;55.940;37.496;2023-03-18T01:42:41;99860.22;;;-3.68;100.00
69848;BME280;57143;55.940;37.496;2023-03-18T01:45:17;99858.63;;;-3.71;100.00
69848;BME280;57143;55.940;37.496;2023-03-18T01:47:47;99856.84;;;-3.70;100.00
69848;BME280;57143;55.940;37.496;2023-03-18T01:50:17;99862.50;;;-3.75;100.00
69848;BME280;57143;55.940;37.496;2023-03-18T01:52:46;99839.19;;;-3.92;100.00
69848;BME280;57143;55.940;37.496;2023-03-18T01:55:17;99852.66;;;-3.84;100.00
69848;BME280;57143;55.940;37.496;2023-03-18T01:57:46;99861.44;;;-3.83;100.00
69848;BME280;57143;55.940;37.496;2023-03-18T02:00:15;99856.75;;;-3.91;100.00
69848;BME280;57143;55.940;37.496;2023-03-18T02:02:47;99871.06;;;-3.82;100.00
69848;BME280;57143;55.940;37.496;2023-03-18T02:05:17;99852.81;;;-4.07;100.00
69848;BME280;57143;55.940;37.496;2023-03-18T02:07:45;99863.63;;;-3.99;100.00
69848;BME280;57143;55.940;37.496;2023-03-18T02:10:15;99898.72;;;-3.86;100.00
69848;BME280;57143;55.940;37.496;2023-03-18T02:12:59;99898.13;;;-3.90;100.00
69848;BME280;57143;55.940;37.496;2023-03-18T02:15:29;99904.03;;;-3.86;100.00
69848;BME280;57143;55.940;37.496;2023-03-18T02:18:07;99851.13;;;-4.19;100.00
69848;BME280;57143;55.940;37.496;2023-03-18T02:20:46;99909.81;;;-3.92;100.00
69848;BME280;57143;55.940;37.496;2023-03-18T02:23:22;99932.44;;;-3.88;100.00
69848;BME280;57143;55.940;37.496;2023-03-18T02:25:56;99936.91;;;-3.89;100.00
69848;BME280;57143;55.940;37.496;2023-03-18T02:28:28;99931.72;;;-3.90;100.00
69848;BME280;57143;55.940;37.496;2023-03-18T02:30:59;99925.72;;;-3.92;100.00
69848;BME280;57143;55.940;37.496;2023-03-18T02:33:32;99914.25;;;-4.04;100.00
69848;BME280;57143;55.940;37.496;2023-03-18T02:36:03;99925.84;;;-3.94;100.00
69848;BME280;57143;55.940;37.496;2023-03-18T02:38:31;99913.06;;;-4.00;100.00
69848;BME280;57143;55.940;37.496;2023-03-18T02:40:59;99905.25;;;-4.01;100.00
69848;BME280;57143;55.940;37.496;2023-03-18T02:43:29;99907.44;;;-3.95;100.00
69848;BME280;57143;55.940;37.496;2023-03-18T02:46:16;99915.59;;;-3.98;100.00
69848;BME280;57143;55.940;37.496;2023-03-18T02:48:47;99894.06;;;-4.05;100.00
69848;BME280;57143;55.940;37.496;2023-03-18T02:51:16;99900.69;;;-3.99;100.00
69848;BME280;57143;55.940;37.496;2023-03-18T02:53:43;99892.50;;;-3.96;100.00
69848;BME280;57143;55.940;37.496;2023-03-18T02:56:11;99886.47;;;-3.98;100.00
69848;BME280;57143;55.940;37.496;2023-03-18T02:58:40;99884.94;;;-4.01;100.00
69848;BME280;57143;55.940;37.496;2023-03-18T03:01:08;99876.00;;;-4.00;100.00
69848;BME280;57143;55.940;37.496;2023-03-18T03:03:36;99881.06;;;-3.97;100.00
69848;BME280;57143;55.940;37.496;2023-03-18T03:06:04;99871.69;;;-4.01;100.00
69848;BME280;57143;55.940;37.496;2023-03-18T03:08:32;99872.66;;;-4.02;100.00
69848;BME280;57143;55.940;37.496;2023-03-18T03:10:59;99875.53;;;-4.05;100.00
69848;BME280;57143;55.940;37.496;2023-03-18T03:13:26;99869.28;;;-4.15;100.00
69848;BME280;57143;55.940;37.496;2023-03-18T03:15:55;99857.00;;;-4.05;100.00
69848;BME280;57143;55.940;37.496;2023-03-18T03:18:22;99859.78;;;-4.17;100.00
69848;BME280;57143;55.940;37.496;2023-03-18T03:20:51;99851.50;;;-4.13;100.00
69848;BME280;57143;55.940;37.496;2023-03-18T03:23:18;99845.34;;;-4.13;100.00
69848;BME280;57143;55.940;37.496;2023-03-18T03:25:45;99845.69;;;-4.07;100.00
69848;BME280;57143;55.940;37.496;2023-03-18T03:28:14;99817.09;;;-4.13;100.00
69848;BME280;57143;55.940;37.496;2023-03-18T03:30:42;99836.44;;;-4.01;100.00
69848;BME280;57143;55.940;37.496;2023-03-18T03:33:11;99854.13;;;-3.91;100.00
69848;BME280;57143;55.940;37.496;2023-03-18T03:35:39;99858.22;;;-3.87;100.00
69848;BME280;57143;55.940;37.496;2023-03-18T03:38:07;99842.31;;;-3.98;100.00
69848;BME280;57143;55.940;37.496;2023-03-18T03:40:35;99852.19;;;-3.89;100.00
69848;BME280;57143;55.940;37.496;2023-03-18T03:43:03;99859.88;;;-3.86;100.00
69848;BME280;57143;55.940;37.496;2023-03-18T03:45:31;99861.06;;;-3.90;100.00
69848;BME280;57143;55.940;37.496;2023-03-18T03:47:58;99857.84;;;-3.93;100.00
69848;BME280;57143;55.940;37.496;2023-03-18T03:50:27;99870.47;;;-3.86;100.00
69848;BME280;57143;55.940;37.496;2023-03-18T03:52:54;99849.66;;;-4.01;100.00
69848;BME280;57143;55.940;37.496;2023-03-18T03:55:22;99851.94;;;-3.97;100.00
69848;BME280;57143;55.940;37.496;2023-03-18T03:57:49;99865.44;;;-3.89;100.00
69848;BME280;57143;55.940;37.496;2023-03-18T04:00:19;99858.09;;;-3.85;100.00
69848;BME280;57143;55.940;37.496;2023-03-18T04:02:48;99797.00;;;-4.15;100.00
69848;BME280;57143;55.940;37.496;2023-03-18T04:05:17;99774.78;;;-4.24;100.00
69848;BME280;57143;55.940;37.496;2023-03-18T04:07:47;99790.44;;;-3.78;100.00
69848;BME280;57143;55.940;37.496;2023-03-18T04:10:16;99803.22;;;-2.69;100.00
69848;BME280;57143;55.940;37.496;2023-03-18T04:12:45;99735.13;;;-2.19;100.00
69848;BME280;57143;55.940;37.496;2023-03-18T04:15:14;99810.31;;;-1.22;100.00
69848;BME280;57143;55.940;37.496;2023-03-18T04:17:41;99903.97;;;-0.71;100.00
69848;BME280;57143;55.940;37.496;2023-03-18T04:20:10;99979.91;;;0.08;100.00
69848;BME280;57143;55.940;37.496;2023-03-18T04:22:37;100032.94;;;0.02;100.00
69848;BME280;57143;55.940;37.496;2023-03-18T04:25:07;100074.00;;;0.18;100.00
69848;BME280;57143;55.940;37.496;2023-03-18T04:27:35;100142.09;;;0.59;100.00
69848;BME280;57143;55.940;37.496;2023-03-18T04:30:03;100180.41;;;0.77;100.00
69848;BME280;57143;55.940;37.496;2023-03-18T04:32:31;100203.69;;;0.84;100.00
69848;BME280;57143;55.940;37.496;2023-03-18T04:34:58;100252.88;;;1.38;100.00
69848;BME280;57143;55.940;37.496;2023-03-18T04:37:25;100194.19;;;1.18;100.00
69848;BME280;57143;55.940;37.496;2023-03-18T04:39:53;100278.47;;;1.67;100.00
69848;BME280;57143;55.940;37.496;2023-03-18T04:42:21;100327.28;;;1.60;100.00
69848;BME280;57143;55.940;37.496;2023-03-18T04:44:48;100304.41;;;1.38;100.00
69848;BME280;57143;55.940;37.496;2023-03-18T04:47:15;100352.41;;;1.76;100.00
69848;BME280;57143;55.940;37.496;2023-03-18T04:49:42;100376.97;;;1.89;100.00
69848;BME280;57143;55.940;37.496;2023-03-18T04:52:10;100379.84;;;2.05;100.00
69848;BME280;57143;55.940;37.496;2023-03-18T04:54:37;100344.78;;;2.18;100.00
69848;BME280;57143;55.940;37.496;2023-03-18T04:57:04;100383.00;;;2.73;100.00
69848;BME280;57143;55.940;37.496;2023-03-18T04:59:33;100384.72;;;3.44;100.00
69848;BME280;57143;55.940;37.496;2023-03-18T05:02:00;100412.13;;;3.20;100.00
69848;BME280;57143;55.940;37.496;2023-03-18T05:04:29;100375.13;;;3.85;100.00
69848;BME280;57143;55.940;37.496;2023-03-18T05:06:56;100415.06;;;4.55;100.00
69848;BME280;57143;55.940;37.496;2023-03-18T05:09:23;100428.97;;;5.00;100.00
69848;BME280;57143;55.940;37.496;2023-03-18T05:11:50;100430.13;;;4.48;100.00
69848;BME280;57143;55.940;37.496;2023-03-18T05:14:17;100448.56;;;4.85;100.00
69848;BME280;57143;55.940;37.496;2023-03-18T05:16:46;100466.03;;;4.89;100.00
69848;BME280;57143;55.940;37.496;2023-03-18T05:19:13;100484.84;;;5.70;100.00
69848;BME280;57143;55.940;37.496;2023-03-18T05:21:41;100463.31;;;5.46;100.00
69848;BME280;57143;55.940;37.496;2023-03-18T05:24:08;100543.00;;;5.55;100.00
69848;BME280;57143;55.940;37.496;2023-03-18T05:26:36;100540.69;;;5.93;100.00
69848;BME280;57143;55.940;37.496;2023-03-18T05:29:03;100530.97;;;6.00;100.00
69848;BME280;57143;55.940;37.496;2023-03-18T05:31:30;100575.34;;;5.88;98.91
69848;BME280;57143;55.940;37.496;2023-03-18T05:33:59;100597.50;;;5.81;96.31
69848;BME280;57143;55.940;37.496;2023-03-18T05:36:26;100641.88;;;5.77;94.26
69848;BME280;57143;55.940;37.496;2023-03-18T05:38:54;100640.41;;;5.83;94.11
69848;BME280;57143;55.940;37.496;2023-03-18T05:41:21;100645.00;;;6.15;92.08
69848;BME280;57143;55.940;37.496;2023-03-18T05:43:48;100676.66;;;6.45;89.62
69848;BME280;57143;55.940;37.496;2023-03-18T05:46:16;100694.56;;;5.96;89.02
69848;BME280;57143;55.940;37.496;2023-03-18T05:48:43;100694.31;;;5.40;93.68
69848;BME280;57143;55.940;37.496;2023-03-18T05:51:11;100678.84;;;5.75;92.36
69848;BME280;57143;55.940;37.496;2023-03-18T05:53:39;100675.81;;;5.70;94.08
69848;BME280;57143;55.940;37.496;2023-03-18T05:56:06;100697.28;;;6.04;90.77
69848;BME280;57143;55.940;37.496;2023-03-18T05:58:33;100720.19;;;6.16;87.02
69848;BME280;57143;55.940;37.496;2023-03-18T06:01:00;100721.13;;;6.57;86.17
69848;BME280;57143;55.940;37.496;2023-03-18T06:03:28;100733.16;;;5.79;86.01
69848;BME280;57143;55.940;37.496;2023-03-18T06:05:55;100737.75;;;6.36;87.12
69848;BME280;57143;55.940;37.496;2023-03-18T06:08:23;100750.88;;;6.31;86.07
69848;BME280;57143;55.940;37.496;2023-03-18T06:10:51;100768.94;;;6.05;84.95
69848;BME280;57143;55.940;37.496;2023-03-18T06:13:18;100768.09;;;6.05;83.62
69848;BME280;57143;55.940;37.496;2023-03-18T06:15:46;100780.06;;;5.51;84.72
69848;BME280;57143;55.940;37.496;2023-03-18T06:18:13;100781.25;;;5.23;86.07
69848;BME280;57143;55.940;37.496;2023-03-18T06:20:41;100767.44;;;5.43;86.25
69848;BME280;57143;55.940;37.496;2023-03-18T06:23:08;100785.59;;;5.24;86.31
69848;BME280;57143;55.940;37.496;2023-03-18T06:25:37;100774.38;;;5.28;87.14
69848;BME280;57143;55.940;37.496;2023-03-18T06:28:06;100786.28;;;5.26;86.30
69848;BME280;57143;55.940;37.496;2023-03-18T06:30:33;100782.50;;;5.62;85.98
69848;BME280;57143;55.940;37.496;2023-03-18T06:33:01;100760.53;;;6.00;85.71
69848;BME280;57143;55.940;37.496;2023-03-18T06:35:28;100762.50;;;5.90;84.19
69848;BME280;57143;55.940;37.496;2023-03-18T06:37:56;100752.22;;;5.85;81.82
69848;BME280;57143;55.940;37.496;2023-03-18T06:40:24;100795.25;;;5.60;81.06
69848;BME280;57143;55.940;37.496;2023-03-18T06:42:52;100758.00;;;5.14;82.14
69848;BME280;57143;55.940;37.496;2023-03-18T06:45:20;100785.50;;;5.33;82.91
69848;BME280;57143;55.940;37.496;2023-03-18T06:47:48;100790.06;;;5.92;82.30
69848;BME280;57143;55.940;37.496;2023-03-18T06:50:15;100752.72;;;5.55;79.73
69848;BME280;57143;55.940;37.496;2023-03-18T06:52:42;100797.94;;;5.85;80.90
69848;BME280;57143;55.940;37.496;2023-03-18T06:55:09;100798.81;;;6.36;79.65
69848;BME280;57143;55.940;37.496;2023-03-18T06:57:36;100808.97;;;6.58;78.38
69848;BME280;57143;55.940;37.496;2023-03-18T07:00:06;100808.88;;;6.91;77.63
69848;BME280;57143;55.940;37.496;2023-03-18T07:02:33;100806.66;;;6.71;76.69
69848;BME280;57143;55.940;37.496;2023-03-18T07:05:01;100808.44;;;6.38;78.74
69848;BME280;57143;55.940;37.496;2023-03-18T07:07:29;100802.13;;;6.87;78.31
69848;BME280;57143;55.940;37.496;2023-03-18T07:09:56;100799.78;;;7.17;76.29
69848;BME280;57143;55.940;37.496;2023-03-18T07:12:23;100826.63;;;6.03;73.99
69848;BME280;57143;55.940;37.496;2023-03-18T07:14:51;100831.50;;;5.30;71.59
69848;BME280;57143;55.940;37.496;2023-03-18T07:17:20;100841.53;;;5.46;71.66
69848;BME280;57143;55.940;37.496;2023-03-18T07:19:48;100839.13;;;5.35;71.13
69848;BME280;57143;55.940;37.496;2023-03-18T07:22:15;100833.50;;;5.28;72.34
69848;BME280;57143;55.940;37.496;2023-03-18T07:24:42;100820.66;;;5.83;74.14
69848;BME280;57143;55.940;37.496;2023-03-18T07:27:10;100831.63;;;5.72;68.99
69848;BME280;57143;55.940;37.496;2023-03-18T07:29:38;100849.03;;;5.60;66.23
69848;BME280;57143;55.940;37.496;2023-03-18T07:32:05;100829.19;;;5.61;68.24
69848;BME280;57143;55.940;37.496;2023-03-18T07:34:34;100816.16;;;5.92;68.04
69848;BME280;57143;55.940;37.496;2023-03-18T07:37:01;100815.16;;;6.42;67.70
69848;BME280;57143;55.940;37.496;2023-03-18T07:39:28;100822.16;;;6.69;65.63
69848;BME280;57143;55.940;37.496;2023-03-18T07:41:56;100826.63;;;6.03;63.43
69848;BME280;57143;55.940;37.496;2023-03-18T07:44:23;100820.97;;;6.14;62.26
69848;BME280;57143;55.940;37.496;2023-03-18T07:46:50;100822.09;;;6.03;62.11
69848;BME280;57143;55.940;37.496;2023-03-18T07:49:18;100813.28;;;5.93;61.71
69848;BME280;57143;55.940;37.496;2023-03-18T07:51:46;100816.16;;;6.33;56.48
69848;BME280;57143;55.940;37.496;2023-03-18T07:54:13;100799.41;;;6.55;55.85
69848;BME280;57143;55.940;37.496;2023-03-18T07:56:41;100792.84;;;6.82;55.25
69848;BME280;57143;55.940;37.496;2023-03-18T07:59:09;100794.03;;;6.95;54.89
69848;BME280;57143;55.940;37.496;2023-03-18T08:01:37;100806.28;;;6.58;52.79
69848;BME280;57143;55.940;37.496;2023-03-18T08:04:04;100804.50;;;7.15;51.55
69848;BME280;57143;55.940;37.496;2023-03-18T08:06:31;100818.13;;;6.81;50.34
69848;BME280;57143;55.940;37.496;2023-03-18T08:09:00;100834.72;;;6.52;45.72
69848;BME280;57143;55.940;37.496;2023-03-18T08:11:28;100879.44;;;6.04;44.91
69848;BME280;57143;55.940;37.496;2023-03-18T08:13:55;100869.94;;;6.17;45.75
69848;BME280;57143;55.940;37.496;2023-03-18T08:16:22;100866.22;;;6.18;47.11
69848;BME280;57143;55.940;37.496;2023-03-18T08:18:50;100850.22;;;6.50;47.81
69848;BME280;57143;55.940;37.496;2023-03-18T08:21:17;100851.25;;;6.57;49.65
69848;BME280;57143;55.940;37.496;2023-03-18T08:23:45;100898.00;;;6.15;44.77
69848;BME280;57143;55.940;37.496;2023-03-18T08:26:14;100900.53;;;6.16;45.19
69848;BME280;57143;55.940;37.496;2023-03-18T08:28:41;100932.91;;;5.81;41.36
69848;BME280;57143;55.940;37.496;2023-03-18T08:31:08;100949.44;;;5.86;41.70
69848;BME280;57143;55.940;37.496;2023-03-18T08:33:35;100946.88;;;6.02;41.45
69848;BME280;57143;55.940;37.496;2023-03-18T08:36:02;100939.44;;;6.22;42.94
69848;BME280;57143;55.940;37.496;2023-03-18T08:38:29;100936.66;;;6.39;43.59
69848;BME280;57143;55.940;37.496;2023-03-18T08:40:56;100915.59;;;6.68;44.35
69848;BME280;57143;55.940;37.496;2023-03-18T08:43:25;100934.69;;;6.83;42.98
69848;BME280;57143;55.940;37.496;2023-03-18T08:45:53;100928.94;;;6.11;45.55
69848;BME280;57143;55.940;37.496;2023-03-18T08:48:21;100918.06;;;5.95;47.92
69848;BME280;57143;55.940;37.496;2023-03-18T08:50:49;100918.56;;;5.72;46.93
69848;BME280;57143;55.940;37.496;2023-03-18T08:53:16;100954.69;;;5.17;43.77
69848;BME280;57143;55.940;37.496;2023-03-18T08:55:45;100929.59;;;5.09;46.06
69848;BME280;57143;55.940;37.496;2023-03-18T08:58:13;100911.06;;;5.06;48.87
69848;BME280;57143;55.940;37.496;2023-03-18T09:00:41;100895.78;;;5.06;50.29
69848;BME280;57143;55.940;37.496;2023-03-18T09:03:09;100885.28;;;4.95;49.98
69848;BME280;57143;55.940;37.496;2023-03-18T09:05:36;100883.72;;;4.75;49.75
69848;BME280;57143;55.940;37.496;2023-03-18T09:08:05;100901.75;;;4.38;49.29
69848;BME280;57143;55.940;37.496;2023-03-18T09:10:32;100916.84;;;4.39;47.98
69848;BME280;57143;55.940;37.496;2023-03-18T09:13:00;100985.16;;;4.17;42.40
69848;BME280;57143;55.940;37.496;2023-03-18T09:15:28;100975.78;;;4.31;44.06
69848;BME280;57143;55.940;37.496;2023-03-18T09:17:57;101008.13;;;4.29;40.22
69848;BME280;57143;55.940;37.496;2023-03-18T09:20:24;101063.19;;;4.33;40.34
69848;BME280;57143;55.940;37.496;2023-03-18T09:22:51;101164.78;;;4.38;40.73
69848;BME280;57143;55.940;37.496;2023-03-18T09:25:19;101221.13;;;4.66;42.00
69848;BME280;57143;55.940;37.496;2023-03-18T09:27:46;101221.97;;;4.67;48.34
69848;BME280;57143;55.940;37.496;2023-03-18T09:30:14;101229.44;;;4.73;43.29
69848;BME280;57143;55.940;37.496;2023-03-18T09:32:41;101225.94;;;4.44;39.24
69848;BME280;57143;55.940;37.496;2023-03-18T09:35:11;101217.31;;;4.31;39.59
69848;BME280;57143;55.940;37.496;2023-03-18T09:37:39;101233.69;;;4.47;38.71
69848;BME280;57143;55.940;37.496;2023-03-18T09:40:17;101222.53;;;4.61;36.98
69848;BME280;57143;55.940;37.496;2023-03-18T09:42:54;101230.47;;;4.43;35.35
69848;BME280;57143;55.940;37.496;2023-03-18T09:45:30;101231.59;;;4.41;36.80
69848;BME280;57143;55.940;37.496;2023-03-18T09:51:02;101208.97;;;4.53;38.88
69848;BME280;57143;55.940;37.496;2023-03-18T09:53:40;101208.66;;;4.75;37.82
69848;BME280;57143;55.940;37.496;2023-03-18T09:56:14;101200.06;;;4.71;38.33
69848;BME280;57143;55.940;37.496;2023-03-18T09:58:48;101217.84;;;4.92;38.82
69848;BME280;57143;55.940;37.496;2023-03-18T10:01:20;101193.56;;;4.74;36.85
69848;BME280;57143;55.940;37.496;2023-03-18T10:03:50;101203.59;;;4.72;37.20
69848;BME280;57143;55.940;37.496;2023-03-18T10:06:23;101213.91;;;4.77;37.02
69848;BME280;57143;55.940;37.496;2023-03-18T10:08:57;101216.91;;;4.45;35.03
69848;BME280;57143;55.940;37.496;2023-03-18T10:11:30;101209.69;;;4.55;36.41
69848;BME280;57143;55.940;37.496;2023-03-18T10:14:09;101200.06;;;4.33;36.23
69848;BME280;57143;55.940;37.496;2023-03-18T10:16:51;101201.06;;;4.42;36.98
69848;BME280;57143;55.940;37.496;2023-03-18T10:19:21;101203.06;;;4.40;36.26
69848;BME280;57143;55.940;37.496;2023-03-18T10:21:58;101196.09;;;4.47;35.42
69848;BME280;57143;55.940;37.496;2023-03-18T10:24:31;101196.97;;;4.38;35.08
69848;BME280;57143;55.940;37.496;2023-03-18T10:27:12;101183.72;;;4.36;35.11
69848;BME280;57143;55.940;37.496;2023-03-18T10:29:43;101189.50;;;4.41;35.23
69848;BME280;57143;55.940;37.496;2023-03-18T10:32:22;101187.38;;;4.26;33.52
69848;BME280;57143;55.940;37.496;2023-03-18T10:35:12;101118.00;;;3.83;33.82
69848;BME280;57143;55.940;37.496;2023-03-18T10:37:50;101183.13;;;4.42;35.60
69848;BME280;57143;55.940;37.496;2023-03-18T10:40:23;101146.97;;;4.18;34.52
69848;BME280;57143;55.940;37.496;2023-03-18T10:42:52;101190.75;;;4.37;34.11
69848;BME280;57143;55.940;37.496;2023-03-18T10:45:22;101192.88;;;4.24;33.24
69848;BME280;57143;55.940;37.496;2023-03-18T10:47:57;101177.19;;;4.01;31.22
69848;BME280;57143;55.940;37.496;2023-03-18T10:50:30;101180.28;;;4.06;32.18
69848;BME280;57143;55.940;37.496;2023-03-18T10:53:06;101138.47;;;3.94;33.09
69848;BME280;57143;55.940;37.496;2023-03-18T10:55:44;101152.47;;;3.97;33.48
69848;BME280;57143;55.940;37.496;2023-03-18T10:58:15;101147.69;;;4.10;34.83
69848;BME280;57143;55.940;37.496;2023-03-18T11:00:43;101164.06;;;4.36;36.58
69848;BME280;57143;55.940;37.496;2023-03-18T11:03:19;101177.22;;;4.29;34.28
69848;BME280;57143;55.940;37.496;2023-03-18T11:05:49;101170.72;;;4.22;34.75
69848;BME280;57143;55.940;37.496;2023-03-18T11:08:31;101159.13;;;4.22;35.32
69848;BME280;57143;55.940;37.496;2023-03-18T11:11:12;101156.56;;;4.30;36.99
69848;BME280;57143;55.940;37.496;2023-03-18T11:13:46;101169.56;;;4.25;37.13
69848;BME280;57143;55.940;37.496;2023-03-18T11:16:22;101157.00;;;4.25;36.29
69848;BME280;57143;55.940;37.496;2023-03-18T11:18:51;101163.06;;;4.37;37.53
69848;BME280;57143;55.940;37.496;2023-03-18T11:21:19;101165.75;;;4.46;38.53
69848;BME280;57143;55.940;37.496;2023-03-18T11:23:55;101149.25;;;4.22;35.42
69848;BME280;57143;55.940;37.496;2023-03-18T11:26:43;101166.16;;;4.23;35.30
69848;BME280;57143;55.940;37.496;2023-03-18T11:29:16;101152.31;;;4.18;35.42
69848;BME280;57143;55.940;37.496;2023-03-18T11:31:51;101142.72;;;4.25;37.60
69848;BME280;57143;55.940;37.496;2023-03-18T11:34:23;101158.53;;;4.47;37.60
69848;BME280;57143;55.940;37.496;2023-03-18T11:36:55;101150.63;;;4.55;38.28
69848;BME280;57143;55.940;37.496;2023-03-18T11:39:30;101153.19;;;4.37;36.32
69848;BME280;57143;55.940;37.496;2023-03-18T11:41:58;101113.53;;;4.12;36.48
69848;BME280;57143;55.940;37.496;2023-03-18T11:44:30;101131.44;;;4.21;37.23
69848;BME280;57143;55.940;37.496;2023-03-18T11:47:04;101121.13;;;4.26;37.75
69848;BME280;57143;55.940;37.496;2023-03-18T11:49:36;101127.75;;;4.41;36.90
69848;BME280;57143;55.940;37.496;2023-03-18T11:52:30;101121.25;;;4.53;37.69
69848;BME280;57143;55.940;37.496;2023-03-18T11:55:14;101135.47;;;4.63;38.25
69848;BME280;57143;55.940;37.496;2023-03-18T12:00:58;101132.25;;;4.50;36.73
69848;BME280;57143;55.940;37.496;2023-03-18T12:03:55;101135.81;;;4.41;36.57
69848;BME280;57143;55.940;37.496;2023-03-18T12:06:26;101142.16;;;4.40;36.37
69848;BME280;57143;55.940;37.496;2023-03-18T12:09:00;101127.19;;;4.38;36.81
69848;BME280;57143;55.940;37.496;2023-03-18T12:11:44;101055.66;;;4.00;37.15
69848;BME280;57143;55.940;37.496;2023-03-18T12:14:23;101118.41;;;4.45;38.01
69848;BME280;57143;55.940;37.496;2023-03-18T12:16:58;101123.38;;;4.50;37.76
69848;BME280;57143;55.940;37.496;2023-03-18T12:19:38;101109.09;;;4.59;38.96
69848;BME280;57143;55.940;37.496;2023-03-18T12:22:35;101097.91;;;4.63;39.12
69848;BME280;57143;55.940;37.496;2023-03-18T12:25:22;101111.88;;;4.67;39.78
69848;BME280;57143;55.940;37.496;2023-03-18T12:28:00;101032.19;;;4.12;41.01
69848;BME280;57143;55.940;37.496;2023-03-18T12:30:48;101090.03;;;4.43;40.27
69848;BME280;57143;55.940;37.496;2023-03-18T12:33:37;101097.34;;;4.50;40.71
69848;BME280;57143;55.940;37.496;2023-03-18T12:36:17;101082.63;;;4.64;41.41
69848;BME280;57143;55.940;37.496;2023-03-18T12:42:01;101076.38;;;4.73;42.42
69848;BME280;57143;55.940;37.496;2023-03-18T12:44:42;101037.91;;;4.36;41.16
69848;BME280;57143;55.940;37.496;2023-03-18T12:47:16;101062.28;;;4.61;41.79
69848;BME280;57143;55.940;37.496;2023-03-18T12:49:49;101073.44;;;4.66;43.31
69848;BME280;57143;55.940;37.496;2023-03-18T12:52:25;101079.00;;;4.55;42.51
69848;BME280;57143;55.940;37.496;2023-03-18T12:55:00;101067.25;;;4.47;41.34
69848;BME280;57143;55.940;37.496;2023-03-18T12:57:36;101087.75;;;4.38;42.19
69848;BME280;57143;55.940;37.496;2023-03-18T13:00:15;101058.41;;;4.27;41.72
69848;BME280;57143;55.940;37.496;2023-03-18T13:02:48;101073.78;;;4.35;41.81
69848;BME280;57143;55.940;37.496;2023-03-18T13:05:26;101069.53;;;4.42;42.60
69848;BME280;57143;55.940;37.496;2023-03-18T13:08:15;101069.41;;;4.43;42.02
69848;BME280;57143;55.940;37.496;2023-03-18T13:10:48;101068.31;;;4.36;40.97